Eudunda, South Australia

2:58 AM ACDT on March 05, 2015 (GMT +1030)
Adelaide International | Change Station
CLOSE
Current Station
Airport
Location: Adelaide,
Elevation: 20 ft
Nearby Weather Stations

Elev 20 ft 34.95 °S, 138.52 °E | Updated 28 minutes ago

Light Rain Showers
Light Showers Rain
64 °F
Feels Like 64 °F
N
16
Wind Variable Wind from South

Today
High -- | Low -- °F
--% Chance of Precip.
Yesterday
High -- | Low -- °F
Precip. -- in
7:04 AM 7:45 PM
Waxing Gibbous, 99% visible
Pressure 30.09 in
Visibility 6.2 miles
Clouds Few 1800 ft
Scattered Clouds 2500 ft
Mostly Cloudy 5000 ft
Dew Point 55 °F
Humidity 73%
Rainfall 0.00 in
Snow Depth Not available.
UV 0 out of 12
Pollen Not available.
Air Quality Not available.
Flu Activity Not available.
METAR YPAD 041600Z 18014KT 9999 -SHRA FEW018 SCT025 BKN050 18/13 Q1019 INTER 1600/1700 23020G30KT 5000 SHRA FEW015 BKN020

More Conditions Fewer Conditions

Pressure 30.09 in
Visibility 6.2 miles
Clouds Few 1800 ft
Scattered Clouds 2500 ft
Mostly Cloudy 5000 ft
Dew Point 55 °F
Humidity 73%
Rainfall 0.00 in
Snow Depth Not available.
UV 0 out of 12
Pollen Not available.
Air Quality Not available.
Flu Activity Not available.
METAR YPAD 041600Z 18014KT 9999 -SHRA FEW018 SCT025 BKN050 18/13 Q1019 INTER 1600/1700 23020G30KT 5000 SHRA FEW015 BKN020

More Conditions Fewer Conditions

10-Day Weather Forecast

Almanac

Astronomy

Mar. 05, 2015 Rise Set
Actual Time
Civil Twilight
Nautical Twilight
Astronomical Twilight
Moon
Length of Visible Light
Length of Day
Tomorrow will be .
, % of the Moon is Illuminated

Today's Extremes

Country Highs Country Lows

Community

WunderPhotos

Upload Photos

1,802,500 photos uploaded!

WunderBlogs® & News

Nearby

Air Quality

  Air Quality AQ Index Pollutant
Not available.

Snow Depth

Station Depth Elevation

Earthquake Activity

City Distance Mag. Time & Date
Minimum magnitude displayed is 2.5.

Coastal Water Temperatures

Place Temperature

Nearby Weather Stations